Create Custom Reports and Graphics: Custom Report

Kelseyville Remote

Current Conditions

5/19/24 7:30 AM (-07:00)
Updated Every 15 Minutes
Temp 55.9 °F   5.5
Daily Min Temp 42.3 °F   5.8
Time of Min Temp 0610
Daily Max Temp 56.0 °F   5.4
Time of Max Temp 0720
RH 55 %   31
Dew Pt 39.8 °F   17.2
Wet Bulb 48.0 °F   12.0
Latest Rain 0.00 In
Daily Rain 0.00 In
Yest MinT 48.1 °F
Yest MaxT 87.4 °F
Yest Precip 0.00 In
Month Precip 0.61 In
Season Precip 29.49 In
Water Yr Precip 29.39 In
BatVolt 13.7 V   0.7
MinBV Day 12.7 V   0.0

Last 7 Days

Kelseyville Remote

Hourly Data | America/Los_Angeles
as of 5/19/24 7:44 AM PDT
Date & Time Temp (°F) RH (%) Dew Pt (°F) Wet Bulb (°F) BatVolt (V) Latest Rain (In) Daily Rain (In) Daily Min Temp (°F) Daily Max Temp (°F)
5/19/24 - 0700 45.2 73 36.8 41.5 13.2 0.00 0.00 42.3 53.9
5/19/24 - 0600 43.6 76 36.5 40.6 12.8 0.00 0.00 42.7 53.9
5/19/24 - 0500 45.6 73 37.4 42.1 12.8 0.00 0.00 43.7 53.9
5/19/24 - 0400 47.1 73 38.9 43.5 12.8 0.00 0.00 46.0 53.9
5/19/24 - 0300 49.3 69 39.5 44.9 12.8 0.00 0.00 47.5 53.9
5/19/24 - 0200 52.4 61 39.4 46.3 12.9 0.00 0.00 51.2 53.9
5/19/24 - 0100 53.6 60 40.1 47.1 12.9 0.00 0.00 48.1 87.4
5/19/24 - 0000 56.6 55 40.6 48.7 12.9 0.00 0.00 48.1 87.4
5/18/24 - 2300 59.1 49 40.0 49.4 13.0 0.00 0.00 48.1 87.4
5/18/24 - 2200 62.6 43 40.0 50.8 13.0 0.00 0.00 48.1 87.4
5/18/24 - 2100 66.6 39 41.1 52.7 13.0 0.00 0.00 48.1 87.4
5/18/24 - 2000 73.8 32 41.8 55.2 13.2 0.00 0.00 48.1 87.4
5/18/24 - 1900 78.5 31 45.1 57.9 13.5 0.00 0.00 48.1 87.4
5/18/24 - 1800 81.6 31 47.9 59.9 13.5 0.00 0.00 48.1 87.4
5/18/24 - 1700 83.2 32 50.4 61.5 13.5 0.00 0.00 48.1 87.4
5/18/24 - 1600 83.9 35 53.2 63.1 13.4 0.00 0.00 48.1 87.4
5/18/24 - 1500 85.1 35 54.2 63.9 13.4 0.00 0.00 48.1 87.4
5/18/24 - 1400 85.9 37 56.8 65.5 13.4 0.00 0.00 48.1 87.4
5/18/24 - 1300 84.1 42 58.2 66.1 13.5 0.00 0.00 48.1 85.3
5/18/24 - 1200 81.3 43 56.8 64.8 13.5 0.00 0.00 48.1 83.0
5/18/24 - 1100 78.9 46 56.5 64.2 13.6 0.00 0.00 48.1 79.7
5/18/24 - 1000 77.0 50 57.0 64.1 13.6 0.00 0.00 48.1 78.0
5/18/24 - 0900 71.2 58 55.5 61.8 13.7 0.00 0.00 48.1 75.0
5/18/24 - 0800 61.0 82 55.5 58.8 13.2 0.00 0.00 48.1 65.8
5/18/24 - 0700 51.3 89 48.1 50.3 12.8 0.00 0.00 48.1 55.6
5/18/24 - 0600 48.4 86 44.6 47.0 12.8 0.00 0.00 48.1 54.7
5/18/24 - 0500 49.8 87 46.0 48.4 12.8 0.00 0.00 49.0 54.7
5/18/24 - 0400 50.6 86 46.4 49.0 12.8 0.00 0.00 50.0 54.7
5/18/24 - 0300 52.2 85 47.8 50.5 12.9 0.00 0.00 51.3 54.7
5/18/24 - 0200 53.7 84 49.2 52.0 12.8 0.00 0.00 52.9 54.7
5/18/24 - 0100 55.7 83 50.8 53.8 12.9 0.00 0.00 46.5 90.1
5/18/24 - 0000 57.6 81 51.7 55.1 12.9 0.00 0.00 46.5 90.1
5/17/24 - 2300 60.1 77 52.9 56.8 13.0 0.00 0.00 46.5 90.1
5/17/24 - 2200 64.2 71 54.8 59.4 13.0 0.00 0.00 46.5 90.1
5/17/24 - 2100 70.1 61 56.0 61.9 13.0 0.00 0.00 46.5 90.1
5/17/24 - 2000 79.3 48 57.6 64.9 13.0 0.00 0.00 46.5 90.1
5/17/24 - 1900 84.5 38 55.9 64.7 13.2 0.00 0.00 46.5 90.1
5/17/24 - 1800 87.0 34 55.0 64.5 13.4 0.00 0.00 46.5 90.1
5/17/24 - 1700 89.1 33 56.5 65.7 13.4 0.00 0.00 46.5 90.1
5/17/24 - 1600 89.2 32 55.7 65.3 13.4 0.00 0.00 46.5 90.1
5/17/24 - 1500 87.5 34 56.0 65.2 13.4 0.00 0.00 46.5 88.7
5/17/24 - 1400 85.3 38 56.6 65.3 13.5 0.00 0.00 46.5 86.7
5/17/24 - 1300 82.2 47 59.8 66.9 13.5 0.00 0.00 46.5 83.2
5/17/24 - 1200 79.4 46 57.1 64.6 13.5 0.00 0.00 46.5 81.6
5/17/24 - 1100 77.4 48 56.2 63.7 13.6 0.00 0.00 46.5 78.3
5/17/24 - 1000 74.8 53 56.4 63.3 13.6 0.00 0.00 46.5 77.2
5/17/24 - 0900 69.5 61 55.5 61.4 13.7 0.00 0.00 46.5 73.3
5/17/24 - 0800 58.7 86 54.4 57.3 13.2 0.00 0.00 46.5 64.0
5/17/24 - 0700 48.5 89 45.5 47.5 12.8 0.00 0.00 46.5 53.0
5/17/24 - 0600 47.3 88 44.1 46.2 12.8 0.00 0.00 46.5 52.0
5/17/24 - 0500 48.1 88 44.8 46.9 12.8 0.00 0.00 47.4 52.0
5/17/24 - 0400 48.3 87 44.7 47.0 12.8 0.00 0.00 48.2 52.0
5/17/24 - 0300 49.0 86 45.2 47.6 12.8 0.00 0.00 48.3 52.0
5/17/24 - 0200 51.1 87 47.4 49.8 12.9 0.00 0.00 50.0 52.0
5/17/24 - 0100 52.3 85 47.9 50.6 12.9 0.00 0.00 46.6 88.9
5/17/24 - 0000 54.5 84 49.7 52.6 12.9 0.00 0.00 46.6 88.9
5/16/24 - 2300 56.5 80 50.6 54.0 12.9 0.00 0.00 46.6 88.9
5/16/24 - 2200 61.2 73 52.4 56.8 13.0 0.00 0.00 46.6 88.9
5/16/24 - 2100 66.6 62 53.3 59.2 13.0 0.00 0.00 46.6 88.9
5/16/24 - 2000 75.0 49 54.8 62.3 13.1 0.00 0.00 46.6 88.9
5/16/24 - 1900 80.6 42 55.7 64.0 13.2 0.00 0.00 46.6 88.9
5/16/24 - 1800 84.8 38 56.2 65.0 13.5 0.00 0.00 46.6 88.9
5/16/24 - 1700 86.9 35 55.8 65.0 13.4 0.00 0.00 46.6 88.9
5/16/24 - 1600 86.8 33 54.5 64.3 13.4 0.00 0.00 46.6 88.9
5/16/24 - 1500 87.1 33 54.9 64.5 13.4 0.00 0.00 46.6 88.9
5/16/24 - 1400 87.4 34 55.7 65.0 13.4 0.00 0.00 46.6 88.9
5/16/24 - 1300 84.4 34 53.2 63.2 13.5 0.00 0.00 46.6 86.3
5/16/24 - 1200 82.2 36 52.9 62.6 13.5 0.00 0.00 46.6 82.7
5/16/24 - 1100 81.9 37 53.1 62.7 13.5 0.00 0.00 46.6 82.7
5/16/24 - 1000 78.2 43 53.5 62.2 13.6 0.00 0.00 46.6 80.9
5/16/24 - 0900 74.2 45 51.2 60.0 13.7 0.00 0.00 46.6 77.4
5/16/24 - 0800 60.8 72 51.5 56.1 13.2 0.00 0.00 46.6 68.5
5/16/24 - 0700 48.8 88 45.3 47.6 12.8 0.00 0.00 46.6 53.9
5/16/24 - 0600 46.9 86 43.0 45.4 12.8 0.00 0.00 46.6 53.9
5/16/24 - 0500 47.4 84 42.9 45.6 12.8 0.00 0.00 46.8 53.9
5/16/24 - 0400 48.7 82 43.5 46.6 12.8 0.00 0.00 47.9 53.9
5/16/24 - 0300 50.3 81 44.8 48.0 12.8 0.00 0.00 49.6 53.9
5/16/24 - 0200 52.6 78 46.0 49.7 12.9 0.00 0.00 51.2 53.9
5/16/24 - 0100 54.5 75 46.8 50.9 12.9 0.00 0.00 46.2 94.5
5/16/24 - 0000 57.6 67 46.6 52.2 12.9 0.00 0.00 46.2 94.5
5/15/24 - 2300 61.4 61 47.6 54.1 13.0 0.00 0.00 46.2 94.5
5/15/24 - 2200 64.4 53 46.9 54.7 13.0 0.00 0.00 46.2 94.5
5/15/24 - 2100 71.1 43 47.4 57.1 13.0 0.00 0.00 46.2 94.5
5/15/24 - 2000 81.8 28 45.4 58.8 13.1 0.00 0.00 46.2 94.5
5/15/24 - 1900 86.2 24 45.3 59.7 13.3 0.00 0.00 46.2 94.5
5/15/24 - 1800 89.0 26 49.4 62.0 13.4 0.00 0.00 46.2 94.5
5/15/24 - 1700 91.5 27 52.4 63.8 13.4 0.00 0.00 46.2 94.5
5/15/24 - 1600 93.1 25 52.5 64.0 13.4 0.00 0.00 46.2 94.5
5/15/24 - 1500 93.3 27 54.2 65.0 13.4 0.00 0.00 46.2 94.5
5/15/24 - 1400 89.7 29 53.5 64.1 13.4 0.00 0.00 46.2 92.2
5/15/24 - 1300 85.7 32 52.8 63.2 13.4 0.00 0.00 46.2 87.3
5/15/24 - 1200 83.4 38 54.8 64.0 13.5 0.00 0.00 46.2 84.2
5/15/24 - 1100 82.1 39 54.7 63.7 13.5 0.00 0.00 46.2 83.1
5/15/24 - 1000 80.5 40 53.6 62.7 13.6 0.00 0.00 46.2 82.4
5/15/24 - 0900 73.8 45 51.3 59.9 13.7 0.00 0.00 46.2 77.7
5/15/24 - 0800 59.9 76 51.8 56.0 13.3 0.00 0.00 46.2 67.8
5/15/24 - 0700 48.3 88 44.8 47.0 12.8 0.00 0.00 46.2 52.8
5/15/24 - 0600 46.8 87 43.0 45.4 12.8 0.00 0.00 46.2 52.8
5/15/24 - 0500 47.6 86 43.5 46.0 12.8 0.00 0.00 47.0 52.8
5/15/24 - 0400 48.7 85 44.4 47.0 12.8 0.00 0.00 48.0 52.8
5/15/24 - 0300 50.4 84 45.7 48.5 12.8 0.00 0.00 49.6 52.8
5/15/24 - 0200 52.2 84 47.4 50.3 12.8 0.00 0.00 51.2 52.8
5/15/24 - 0100 55.0 80 48.9 52.3 12.9 0.00 0.00 44.2 92.1
5/15/24 - 0000 58.9 77 51.9 55.8 12.9 0.00 0.00 44.2 92.1
5/14/24 - 2300 58.9 79 52.4 56.0 13.0 0.00 0.00 44.2 92.1
5/14/24 - 2200 62.5 74 54.0 58.3 13.0 0.00 0.00 44.2 92.1
5/14/24 - 2100 72.6 53 54.4 61.4 13.0 0.00 0.00 44.2 92.1
5/14/24 - 2000 82.0 39 54.5 63.5 13.1 0.00 0.00 44.2 92.1
5/14/24 - 1900 86.3 35 55.2 64.6 13.2 0.00 0.00 44.2 92.1
5/14/24 - 1800 88.7 30 53.7 64.1 13.4 0.00 0.00 44.2 92.1
5/14/24 - 1700 90.0 27 51.8 63.3 13.4 0.00 0.00 44.2 92.1
5/14/24 - 1600 90.5 26 51.3 63.1 13.4 0.00 0.00 44.2 92.1
5/14/24 - 1500 90.4 26 50.6 62.9 13.4 0.00 0.00 44.2 92.1
5/14/24 - 1400 86.4 36 56.0 65.1 13.4 0.00 0.00 44.2 88.6
5/14/24 - 1300 82.7 40 55.6 64.3 13.5 0.00 0.00 44.2 83.9
5/14/24 - 1200 79.9 42 54.6 63.2 13.5 0.00 0.00 44.2 82.0
5/14/24 - 1100 77.0 45 54.0 62.2 13.6 0.00 0.00 44.2 79.0
5/14/24 - 1000 76.6 45 53.9 62.1 13.6 0.00 0.00 44.2 79.0
5/14/24 - 0900 69.7 54 52.0 59.2 13.8 0.00 0.00 44.2 73.7
5/14/24 - 0800 56.5 82 51.0 54.2 13.3 0.00 0.00 44.2 63.3
5/14/24 - 0700 46.4 89 43.2 45.2 12.8 0.00 0.00 44.2 51.2
5/14/24 - 0600 45.4 88 42.2 44.2 12.8 0.00 0.00 44.2 51.2
5/14/24 - 0500 46.3 88 42.9 45.0 12.8 0.00 0.00 46.0 51.2
5/14/24 - 0400 46.8 86 42.9 45.3 12.8 0.00 0.00 46.2 51.2
5/14/24 - 0300 48.9 87 45.1 47.4 12.8 0.00 0.00 47.8 51.2
5/14/24 - 0200 50.1 84 45.4 48.2 12.9 0.00 0.00 49.6 51.2
5/14/24 - 0100 52.4 82 47.0 50.2 12.9 0.00 0.00 39.6 90.4
5/14/24 - 0000 56.3 75 48.6 52.7 12.9 0.00 0.00 39.6 90.4
5/13/24 - 2300 59.3 74 50.9 55.3 13.0 0.00 0.00 39.6 90.4
5/13/24 - 2200 62.8 66 51.1 56.6 13.0 0.00 0.00 39.6 90.4
5/13/24 - 2100 68.4 55 51.6 58.7 13.0 0.00 0.00 39.6 90.4
5/13/24 - 2000 78.5 39 51.7 61.2 13.1 0.00 0.00 39.6 90.4
5/13/24 - 1900 83.2 26 44.5 58.8 13.3 0.00 0.00 39.6 90.4
5/13/24 - 1800 86.2 23 44.5 59.3 13.4 0.00 0.00 39.6 90.4
5/13/24 - 1700 88.8 22 45.0 60.1 13.4 0.00 0.00 39.6 90.4
5/13/24 - 1600 87.6 19 39.6 57.7 13.4 0.00 0.00 39.6 89.6
5/13/24 - 1500 85.1 22 42.4 58.3 13.4 0.00 0.00 39.6 86.1
5/13/24 - 1400 83.1 24 42.9 58.0 13.5 0.00 0.00 39.6 84.1
5/13/24 - 1300 81.4 34 49.9 60.9 13.5 0.00 0.00 39.6 82.5
5/13/24 - 1200 77.1 36 47.8 58.9 13.5 0.00 0.00 39.6 79.5
5/13/24 - 1100 76.5 36 47.6 58.6 13.6 0.00 0.00 39.6 77.6
5/13/24 - 1000 72.9 40 47.2 57.5 13.7 0.00 0.00 39.6 75.4
5/13/24 - 0900 66.8 44 44.0 54.1 13.8 0.00 0.00 39.6 71.8
5/13/24 - 0800 53.4 72 44.4 49.1 13.3 0.00 0.00 39.6 59.2
5/13/24 - 0700 42.1 88 38.7 40.8 12.8 0.00 0.00 39.6 47.8
5/13/24 - 0600 40.2 87 36.5 38.7 12.8 0.00 0.00 39.6 46.4
5/13/24 - 0500 41.3 85 37.1 39.6 12.8 0.00 0.00 40.4 46.4
5/13/24 - 0400 42.6 84 38.0 40.7 12.8 0.00 0.00 42.0 46.4
5/13/24 - 0300 43.9 83 39.2 42.0 12.8 0.00 0.00 43.4 46.4
5/13/24 - 0200 45.2 81 39.8 42.9 12.8 0.00 0.00 44.4 46.4
5/13/24 - 0100 47.2 78 40.5 44.3 12.9 0.00 0.00 42.1 88.0
5/13/24 - 0000 49.7 74 41.9 46.2 12.9 0.00 0.00 42.1 88.0
5/12/24 - 2300 53.0 66 41.9 47.7 12.9 0.00 0.00 42.1 88.0
5/12/24 - 2200 55.8 63 43.5 49.7 13.0 0.00 0.00 42.1 88.0
5/12/24 - 2100 66.2 38 38.8 51.6 13.0 0.00 0.00 42.1 88.0
5/12/24 - 2000 76.5 24 36.7 54.0 13.1 0.00 0.00 42.1 88.0
5/12/24 - 1900 81.4 23 39.7 56.4 13.2 0.00 0.00 42.1 88.0
5/12/24 - 1800 84.3 22 41.8 57.8 13.4 0.00 0.00 42.1 88.0
5/12/24 - 1700 85.7 23 43.2 58.7 13.4 0.00 0.00 42.1 88.0
5/12/24 - 1600 86.9 22 43.7 59.1 13.4 0.00 0.00 42.1 88.0
5/12/24 - 1500 85.8 25 46.3 60.0 13.4 0.00 0.00 42.1 87.0
5/12/24 - 1400 84.8 32 51.4 62.3 13.5 0.00 0.00 42.1 85.3
5/12/24 - 1300 83.7 35 52.8 62.8 13.5 0.00 0.00 42.1 84.5
5/12/24 - 1200 82.1 36 52.4 62.4 13.5 0.00 0.00 42.1 82.7
5/12/24 - 1100 81.2 36 51.8 61.8 13.5 0.00 0.00 42.1 82.7
5/12/24 - 1000 78.1 37 49.5 59.9 13.6 0.00 0.00 42.1 80.8
5/12/24 - 0900 71.1 43 47.7 57.3 13.8 0.00 0.00 42.1 74.5
5/12/24 - 0800 57.1 69 46.5 51.8 13.3 0.00 0.00 42.1 64.8
Max 93.3 89 59.8 66.9 13.8 0.00 0.00 52.9 94.5
Avg 68.0 56 48.6 55.9 13.2 0.00 - - -
Min 40.2 19 36.5 38.7 12.8 0.00 0.00 39.6 46.4
Total - - - - - 0.00 - - -

Last 365 Observations

Kelseyville Remote

Daily Data | America/Los_Angeles
as of 5/19/24 7:44 AM PDT
Date Daily Max Temp (°F) Time of Max Temp Daily Min Temp (°F) Time of Min Temp Daily Rain (In) Month Precip (In) Season Precip (In) Hrs 70-85F (hrs) Hrs > 95F (hrs) Powdery Mildew Stress (pts) GDDs (DL) Seas GDDs (DL) Hrs <= 32F (hrs) Hrs <= 28F (hrs) Chilling <=45F (hrs) Chilling <=45F Seas (hrs) Storm Total (In) Daily Max Rain Intensity (In/Hr) Time of Max Rain Intensity Max 1 Min Rain (In) Max 1 Min Rain Time Max 15 Min Rain (In) Max 15 Min Precip Time Max 60 Min Rain (In) Max 60 Min Rain Time MinBV Day (V) Max RH (%) Min RH (%) Dew Pt (°F)
5/18/24 87.4 1316 48.1 0533 0.00 0.61 29.49 5.35 0.00 0 18.0 465 0.0 0.0 0.0 - - - - - - - - - - 12.7 90 28 48.9
5/17/24 90.1 1543 46.5 0559 0.00 0.61 29.49 4.86 0.00 0 18.9 447 0.0 0.0 0.0 - - - - - - - - - - 12.7 91 27 52.9
5/16/24 88.9 1339 46.6 0525 0.00 0.61 29.49 4.45 0.00 0 18.5 428 0.0 0.0 0.0 - - - - - - - - - - 12.7 89 28 50.9
5/15/24 94.5 1445 46.2 0600 0.00 0.61 29.49 4.22 0.00 0 20.9 409 0.0 0.0 0.0 - - - - - - - - - - 12.7 89 19 49.0
5/14/24 92.1 1448 44.2 0600 0.00 0.61 29.49 4.84 0.00 0 19.4 388 0.0 0.0 0.7 - - - - - - - - - - 12.7 90 16 50.7
5/13/24 90.4 1618 39.6 0601 0.00 0.61 29.49 5.76 0.00 0 17.5 369 0.0 0.0 5.3 - - - - - - - - - - 12.7 89 13 44.6
5/12/24 88.0 1506 42.1 0605 0.00 0.61 29.49 5.69 0.00 10 17.2 352 0.0 0.0 3.7 - - - - - - - - - - 12.7 89 19 43.8
5/11/24 93.7 1711 42.3 0453 0.00 0.61 29.49 4.20 0.00 20 18.5 334 0.0 0.0 3.4 - - - - - - - - - - 12.7 89 13 43.9
5/10/24 88.3 1602 40.2 0609 0.00 0.61 29.49 5.77 0.00 30 17.6 316 0.0 0.0 4.8 - - - - - - - - - - 12.7 89 13 42.4
5/9/24 79.5 1717 46.0 0051 0.00 0.61 29.49 9.14 0.00 40 16.7 298 0.0 0.0 0.0 - - - - - - - - - - 12.8 81 19 35.1
5/8/24 77.3 1418 34.3 0615 0.00 0.61 29.49 9.05 0.00 20 13.9 282 0.0 0.0 6.4 - - - - - - - - - - 12.7 91 12 32.4
5/7/24 75.3 1830 34.6 0618 0.00 0.61 29.49 4.68 0.00 0 8.4 268 0.0 0.0 8.4 - - - - - - - - - - 12.7 91 19 38.4
5/6/24 67.4 1556 32.4 0617 0.00 0.61 29.49 0.00 0.00 0 5.9 259 0.0 0.0 8.0 - - - - - - - - - - 12.7 91 37 38.1
5/5/24 61.8 1606 34.1 0619 0.00 0.61 29.49 0.00 0.00 0 3.3 253 0.0 0.0 9.8 - - - - - - - - - - 12.6 89 33 34.8
5/4/24 54.0 0142 39.0 0040 0.61 0.61 29.49 0.00 0.00 0 0.6 250 0.0 0.0 9.1 - 0.61 0.51 0659 0.01 1832 0.06 1458 0.14 0742 12.7 88 61 41.3
5/3/24 76.7 1515 37.2 0614 0.00 0.00 28.88 5.72 0.00 0 10.6 249 0.0 0.0 5.1 - - - - - - - - - - 12.7 90 23 41.7
5/2/24 72.9 1459 38.8 0538 0.00 0.00 28.88 4.97 0.00 0 10.4 239 0.0 0.0 5.9 - - - - - - - - - - 12.7 85 40 43.6
5/1/24 75.6 1543 31.2 0510 0.00 0.00 28.88 5.17 0.00 10 9.3 228 1.5 0.0 6.9 - - - - - - - - - - 12.6 90 20 34.9
4/30/24 70.9 1547 31.3 0515 0.00 0.57 28.88 1.40 0.00 20 6.7 219 0.4 0.0 9.4 - - - - - - - - - - 12.6 91 24 36.0
4/29/24 68.9 1502 36.2 0625 0.00 0.57 28.88 0.00 0.00 30 6.8 212 0.0 0.0 8.4 - - - - - - - - - - 12.7 87 24 36.9
4/28/24 72.8 1526 38.6 0612 0.00 0.57 28.88 3.22 0.00 40 8.6 206 0.0 0.0 6.2 - - - - - - - - - - 12.7 90 24 40.5
4/27/24 69.9 1346 34.5 0558 0.00 0.57 28.88 0.00 0.00 50 7.2 197 0.0 0.0 6.7 - - - - - - - - - - 12.7 91 36 40.3
4/26/24 64.3 1351 40.8 0101 0.00 0.57 28.88 0.00 0.00 60 4.8 190 0.0 0.0 2.7 - - - - - - - - - - 12.7 88 42 42.1
4/25/24 66.0 1500 45.9 0401 0.00 0.57 28.88 0.00 0.00 70 5.1 185 0.0 0.0 0.0 - - - - - - - - - - 12.7 88 42 42.6
4/24/24 68.9 1629 49.7 0504 0.00 0.57 28.88 0.00 0.00 80 7.5 180 0.0 0.0 0.0 - - - - - - - - - - 12.7 83 42 45.4
4/23/24 66.6 1348 44.5 0640 0.00 0.57 28.88 0.00 0.00 90 6.0 172 0.0 0.0 0.9 - - - - - - - - - - 12.7 87 50 45.0
4/22/24 84.2 1537 41.1 0633 0.00 0.57 28.88 8.72 0.00 100 14.0 166 0.0 0.0 4.3 - - - - - - - - - - 12.7 90 22 46.8
4/21/24 82.4 1548 38.4 0609 0.00 0.57 28.88 7.96 0.00 100 13.6 152 0.0 0.0 5.2 - - - - - - - - - - 12.7 89 15 43.7
4/20/24 78.6 1532 42.7 0616 0.00 0.57 28.88 9.58 0.00 100 12.4 139 0.0 0.0 3.5 - - - - - - - - - - 12.7 86 14 36.8
4/19/24 81.6 1508 41.8 0612 0.00 0.57 28.88 8.06 0.00 100 12.9 126 0.0 0.0 3.5 - - - - - - - - - - 12.7 91 26 45.2
4/18/24 82.0 1619 39.6 0603 0.00 0.57 28.88 6.89 0.00 80 11.8 114 0.0 0.0 4.7 - - - - - - - - - - 12.7 92 21 45.4
4/17/24 79.5 1704 40.6 0616 0.00 0.57 28.88 6.87 0.00 60 11.0 102 0.0 0.0 5.1 - - - - - - - - - - 12.7 91 25 44.7
4/16/24 78.0 1714 38.3 0610 0.00 0.57 28.88 6.35 0.00 40 10.1 91 0.0 0.0 6.4 - - - - - - - - - - 12.7 92 30 45.3
4/15/24 70.3 1632 41.3 0518 0.00 0.57 28.88 0.03 0.00 20 6.0 81 0.0 0.0 3.7 - - - - - - - - - - 12.7 91 37 44.3
4/14/24 55.8 1421 39.8 0109 0.10 0.57 28.88 0.00 0.00 30 1.0 75 0.0 0.0 9.4 - 0.36 0.07 0724 0.01 1007 0.02 0739 0.06 0743 12.7 88 58 40.3
4/13/24 49.6 0102 40.0 0059 0.26 0.47 28.78 0.00 0.00 40 0.0 74 0.0 0.0 19.6 - 0.26 0.24 0259 0.01 1759 0.04 0311 0.07 0601 12.7 86 69 38.0
4/12/24 65.3 1150 38.6 0630 0.00 0.21 28.52 0.00 0.00 50 3.1 74 0.0 0.0 6.9 - - - - - - - - - - 12.7 87 37 39.7
4/11/24 79.0 1433 39.7 0649 0.00 0.21 28.52 8.06 0.00 60 11.6 71 0.0 0.0 5.1 - - - - - - - - - - 12.7 89 24 41.3
4/10/24 81.6 1644 39.4 0631 0.00 0.21 28.52 6.53 0.00 0 11.5 59 0.0 0.0 5.2 - - - - - - - - - - 12.7 90 24 45.4
4/9/24 78.0 1647 36.9 0626 0.00 0.21 28.52 6.04 0.00 0 10.3 47 0.0 0.0 6.6 - - - - - - - - - - 12.7 91 24 42.4
4/8/24 73.5 1723 31.7 0612 0.00 0.21 28.52 2.21 0.00 0 7.0 37 0.1 0.0 8.0 - - - - - - - - - - 12.7 91 18 36.4
4/7/24 61.8 1502 34.1 0134 0.00 0.21 28.52 0.00 0.00 0 2.8 30 0.0 0.0 11.0 - - - - - - - - - - 12.7 89 28 35.0
4/6/24 59.6 1617 29.9 0609 0.00 0.21 28.52 0.00 0.00 0 1.9 27 4.3 0.0 12.3 - - - - - - - - - - 12.7 91 28 32.0
4/5/24 54.0 1522 33.1 0101 0.00 0.21 28.52 0.00 0.00 0 0.4 25 0.0 0.0 15.0 - - 0.04 0101 - - - - 0.02 0102 12.7 88 33 32.6
4/4/24 49.7 1625 37.3 0507 0.21 0.21 28.52 0.00 0.00 0 0.0 25 0.0 0.0 20.5 - 0.21 0.09 0845 0.01 0019 0.03 0853 0.08 0932 12.7 88 55 34.6
4/3/24 67.6 1219 40.1 0703 0.00 0.00 28.31 0.00 0.00 0 4.9 25 0.0 0.0 10.7 - - - - - - - - - - 12.7 90 36 40.4
4/2/24 78.3 1442 39.4 0641 0.00 0.00 28.31 6.51 0.00 0 10.6 20 0.0 0.0 6.0 - - - - - - - - - - 12.7 90 27 44.2
4/1/24 77.0 1737 40.2 0708 0.00 0.00 28.31 4.72 0.00 0 9.5 10 0.0 0.0 1.6 - - - - - - - - - - 12.7 78 12 32.5
3/31/24 67.3 1657 35.2 0654 0.00 4.22 28.31 0.00 0.00 0 5.1 - 0.0 0.0 9.0 1,406 - - - - - - - - - 12.7 92 35 40.1
3/30/24 58.9 1707 42.4 0705 0.12 4.22 28.31 0.00 0.00 0 1.6 - 0.0 0.0 5.6 1,397 0.75 0.14 0131 0.01 0511 0.03 0434 0.05 0519 12.7 86 46 39.5
3/29/24 48.2 1551 36.3 0101 0.29 4.10 28.19 0.00 0.00 0 0.0 - 0.0 0.0 17.4 1,392 0.63 0.22 2109 0.01 0028 0.06 2121 0.10 2202 12.7 90 68 38.2
3/28/24 54.8 1534 36.3 0054 0.14 3.81 27.90 0.00 0.00 0 0.5 - 0.0 0.0 11.2 1,374 0.34 0.16 1153 0.01 1705 0.03 1204 0.05 0253 12.7 89 51 38.5
3/27/24 57.6 1651 40.2 0108 0.20 3.67 27.76 0.00 0.00 0 1.2 - 0.0 0.0 4.2 1,363 0.20 0.21 1739 0.01 2010 0.03 2010 0.08 2022 12.7 88 73 43.4
3/26/24 66.9 1625 33.1 0628 0.00 3.47 27.56 0.00 0.00 0 4.2 - 0.0 0.0 9.6 1,359 - - - - - - - - - 12.7 92 25 37.6
3/25/24 62.2 1451 38.7 0140 0.00 3.47 27.56 0.00 0.00 0 3.3 - 0.0 0.0 10.1 1,349 - - - - - - - - - 12.7 90 38 39.3
3/24/24 58.3 1554 39.8 0004 0.03 3.47 27.56 0.00 0.00 0 2.0 - 0.0 0.0 11.6 1,339 0.64 0.02 0134 0.01 0449 0.01 0503 0.02 0206 12.7 89 45 39.2
3/23/24 55.2 1445 42.5 0101 0.29 3.44 27.53 0.00 0.00 0 0.4 - 0.0 0.0 9.1 1,327 0.61 0.72 1621 0.01 1738 0.05 1629 0.06 1035 12.7 90 59 41.3
3/22/24 59.1 1005 39.6 0020 0.32 3.15 27.24 0.00 0.00 0 1.9 - 0.0 0.0 4.1 1,318 0.32 0.30 1808 0.01 1931 0.07 1815 0.12 1840 12.7 90 64 43.8
3/21/24 69.1 1621 39.1 0700 0.00 2.83 26.92 0.00 0.00 0 5.8 - 0.0 0.0 5.5 1,314 - - - - - - - - - 12.7 91 37 41.8
3/20/24 68.2 1459 33.1 0718 0.00 2.83 26.92 0.00 0.00 0 6.0 - 0.0 0.0 7.2 1,309 - - - - - - - - - 12.7 87 25 36.2
3/19/24 74.1 1446 37.3 0655 0.00 2.83 26.92 4.64 0.00 0 8.4 - 0.0 0.0 7.8 1,301 - - - - - - - - - 12.7 91 22 39.8
3/18/24 74.5 1606 35.3 0713 0.00 2.83 26.92 4.32 0.00 0 8.6 - 0.0 0.0 7.3 1,294 - - - - - - - - - 12.7 89 27 41.7
3/17/24 77.9 1610 33.2 0713 0.00 2.83 26.92 4.44 0.00 0 8.1 - 0.0 0.0 8.1 1,286 - - - - - - - - - 12.7 84 18 35.0
3/16/24 73.8 1521 32.2 0716 0.00 2.83 26.92 3.28 0.00 0 7.2 - 0.0 0.0 9.0 1,278 - - - - - - - - - 12.7 86 16 33.1
3/15/24 69.9 1654 37.5 0059 0.00 2.83 26.92 0.00 0.00 0 9.2 - 0.0 0.0 2.3 1,269 - - - - - - - - - 12.8 76 12 22.8
3/14/24 64.6 1653 36.7 0331 0.00 2.83 26.92 0.00 0.00 0 6.1 - 0.0 0.0 3.2 1,267 - - - - - - - - - 12.8 84 15 21.7
3/13/24 64.7 1703 31.2 0705 0.00 2.83 26.92 0.00 0.00 0 3.0 - 0.6 0.0 11.0 1,264 - - - - - - - - - 12.7 91 31 35.0
3/12/24 57.2 1443 37.4 0059 0.02 2.83 26.92 0.00 0.00 0 1.4 - 0.0 0.0 3.4 1,253 0.68 0.01 0101 0.01 0716 0.01 0730 0.01 0815 12.8 91 51 41.0
3/11/24 53.7 1254 30.8 0747 0.11 2.81 26.90 0.00 0.00 0 0.3 - 2.3 0.0 11.0 1,249 0.66 0.04 2216 0.01 0033 0.02 2218 0.03 2303 12.6 94 50 36.8
3/10/24 55.4 1335 35.1 0544 0.55 2.70 26.79 0.00 0.00 0 0.8 - 0.0 0.0 14.0 1,238 0.55 1.09 1920 0.02 1924 0.12 1934 0.25 2019 12.7 92 48 37.8
3/9/24 57.3 1404 36.6 0058 0.06 2.15 26.24 0.00 0.00 0 1.0 - 0.0 0.0 10.6 1,224 - 0.10 0945 0.01 1407 0.02 1012 0.05 1039 12.7 88 48 39.2
3/8/24 65.9 1657 30.2 0624 0.00 2.09 26.18 0.00 0.00 0 3.6 - 2.9 0.0 12.0 1,214 - - - - - - - - - 12.7 92 19 33.0
3/7/24 61.5 1542 36.4 2337 0.00 2.09 26.18 0.00 0.00 0 2.0 - 0.0 0.0 10.2 1,202 - - - - - - - - - 12.8 90 33 37.2
3/6/24 58.5 1422 44.1 2204 0.11 2.09 26.18 0.00 0.00 0 1.3 - 0.0 0.0 0.5 1,192 2.32 0.14 0255 0.01 0901 0.02 0655 0.06 0039 12.8 91 58 44.1
3/5/24 56.3 1221 45.6 0005 0.24 1.98 26.07 0.00 0.00 0 1.1 - 0.0 0.0 0.0 1,191 2.21 0.43 2345 0.01 2350 0.04 2354 0.10 0228 12.8 92 66 44.5
3/4/24 48.6 1426 32.9 0502 0.05 1.74 25.83 0.00 0.00 0 0.0 - 0.0 0.0 12.0 1,191 1.97 0.04 2231 0.01 2327 0.01 2341 0.03 2331 12.7 92 70 37.3
3/3/24 48.4 1136 32.9 0413 0.23 1.69 25.78 0.00 0.00 0 0.0 - 0.0 0.0 21.1 1,179 1.92 0.51 1339 0.01 2320 0.07 1352 0.12 1432 12.6 91 62 34.0
3/2/24 43.2 1007 32.8 1645 0.74 1.46 25.55 0.00 0.00 0 0.0 - 0.0 0.0 24.0 1,158 1.69 0.39 1355 0.01 2359 0.08 1406 0.20 1441 12.7 90 64 32.1
3/1/24 50.7 0947 38.9 2358 0.72 0.72 24.81 0.00 0.00 0 0.0 - 0.0 0.0 15.1 1,134 0.95 0.27 1954 0.01 2308 0.06 1958 0.11 2031 12.7 87 64 38.9
2/29/24 54.2 1151 38.6 0051 0.23 8.94 24.09 0.00 0.00 - 0.3 - 0.0 0.0 9.0 1,119 0.23 0.68 1232 0.01 2311 0.06 1243 0.10 1307 12.8 87 66 41.1
2/28/24 65.7 1617 30.0 0648 0.00 8.71 23.86 0.00 0.00 - 4.2 - 3.4 0.0 9.7 1,110 - - - - - - - - - 12.6 90 24 32.2
2/27/24 65.1 1651 28.5 0556 0.00 8.71 23.86 0.00 0.00 - 2.2 - 4.7 0.0 13.5 1,100 - - - - - - - - - 12.7 92 18 29.8
2/26/24 56.7 1152 38.4 2357 0.00 8.71 23.86 0.00 0.00 - 1.2 - 0.0 0.0 9.5 1,087 - - - - - - - - - 12.8 90 52 39.5
2/25/24 68.1 1449 34.3 0653 0.00 8.71 23.86 0.00 0.00 - 4.6 - 0.0 0.0 10.0 1,077 - - - - - - - - - 12.7 91 34 39.2
2/24/24 69.3 1628 33.3 0702 0.00 8.71 23.86 0.00 0.00 - 4.8 - 0.0 0.0 10.0 1,067 - - - - - - - - - 12.7 91 24 36.6
2/23/24 64.4 1454 31.3 0514 0.00 8.71 23.86 0.00 0.00 - 2.9 - 0.5 0.0 12.4 1,057 - - - - - - - - - 12.7 93 24 35.4
2/22/24 58.0 1457 35.6 0217 0.00 8.71 23.86 0.00 0.00 - 1.6 - 0.0 0.0 10.6 1,045 - - - - - - - - - 12.8 93 50 39.0
2/21/24 56.8 1712 35.4 0625 0.13 8.71 23.86 0.00 0.00 - 0.8 - 0.0 0.0 12.3 1,034 3.63 0.86 1225 0.01 1723 0.08 1233 0.08 1318 12.7 93 57 40.0
2/20/24 50.6 1559 39.3 2358 0.56 8.58 23.73 0.00 0.00 - 0.0 - 0.0 0.0 2.6 1,022 3.50 0.33 1140 0.01 1601 0.07 1153 0.23 1153 12.8 91 69 42.7
2/19/24 56.5 1128 45.6 0004 1.39 8.02 23.17 0.00 0.00 - 1.3 - 0.0 0.0 0.0 1,019 2.94 1.80 1400 0.02 2048 0.12 2055 0.22 0927 12.7 91 68 44.4
2/18/24 58.5 1204 42.5 0454 0.74 6.63 21.78 0.00 0.00 - 1.2 - 0.0 0.0 3.2 1,019 1.55 0.62 1606 0.01 2358 0.07 1620 0.20 1644 12.7 92 53 43.0
2/17/24 54.4 1106 44.2 2155 0.81 5.89 21.04 0.00 0.00 - 0.8 - 0.0 0.0 1.1 1,016 0.81 0.67 1715 0.01 1830 0.08 1728 0.26 1655 12.8 91 60 43.2
2/16/24 59.0 1428 43.6 0331 0.00 5.08 20.23 0.00 0.00 - 2.6 - 0.0 0.0 7.2 1,015 - - - - - - - - - 12.8 90 47 41.4
2/15/24 58.0 1304 38.2 0647 0.05 5.08 20.23 0.00 0.00 - 1.8 - 0.0 0.0 6.7 1,008 0.29 0.18 0029 0.01 0043 0.04 0035 0.05 0120 12.7 92 56 42.0
2/14/24 54.2 1202 44.1 0440 0.24 5.03 20.18 0.00 0.00 - 0.4 - 0.0 0.0 4.0 1,001 0.24 0.66 1432 0.01 2313 0.06 1443 0.08 1449 12.8 90 67 42.8
2/13/24 59.9 1504 36.9 0119 0.00 4.79 19.94 0.00 0.00 - 1.7 - 0.0 0.0 12.2 997 - - - - - - - - - 12.7 91 44 38.8
2/12/24 61.2 1528 31.7 0446 0.00 4.79 19.94 0.00 0.00 - 1.5 - 0.3 0.0 13.4 985 - - - - - - - - - 12.7 93 46 37.1
2/11/24 64.8 1606 30.4 0630 0.00 4.79 19.94 0.00 0.00 - 2.1 - 3.7 0.0 13.2 971 - - - - - - - - - 12.7 90 38 34.8
2/10/24 60.4 1523 29.6 0735 0.00 4.79 19.94 0.00 0.00 - 1.8 - 4.1 0.0 13.8 958 - - - - - - - - - 12.7 92 34 33.8
2/9/24 56.1 1525 31.4 0332 0.00 4.79 19.94 0.00 0.00 - 0.7 - 0.6 0.0 14.0 944 - - - - - - - - - 12.7 91 43 34.4
2/8/24 52.1 1433 26.1 0738 0.00 4.79 19.94 0.00 0.00 - 0.2 - 7.6 1.6 15.7 930 - - - - - - - - - 12.7 91 43 30.7
2/7/24 46.0 1301 31.7 2334 0.19 4.79 19.94 0.00 0.00 - 0.0 - 0.3 0.0 22.7 915 0.19 0.29 0935 0.01 1402 0.05 0945 0.13 0952 12.8 92 64 33.9
2/6/24 55.6 1357 34.3 0305 0.00 4.60 19.75 0.00 0.00 - 0.4 - 0.0 0.0 17.4 892 - - - - - - - - - 12.8 92 50 35.7
2/5/24 54.1 1213 36.0 2351 0.30 4.60 19.75 0.00 0.00 - 0.5 - 0.0 0.0 4.0 875 4.25 0.37 0340 0.01 0847 0.06 0349 0.12 0421 12.8 91 56 40.0
2/4/24 53.4 1652 37.2 0425 3.94 4.30 19.45 0.00 0.00 - 0.2 - 0.0 0.0 15.2 871 3.95 1.44 0840 0.02 1526 0.24 0845 0.64 0902 12.8 89 70 38.4
2/3/24 48.5 1348 31.1 0257 0.01 0.36 15.51 0.00 0.00 - 0.0 - 0.6 0.0 11.3 855 - 0.01 2345 0.01 2346 0.01 0001 0.01 0001 12.8 92 57 34.8
2/2/24 51.3 1220 34.8 2300 0.06 0.35 15.50 0.00 0.00 - 0.0 - 0.0 0.0 15.4 844 2.29 0.30 1240 0.01 1241 0.02 1253 0.02 1338 12.9 92 56 37.4
2/1/24 55.0 1030 40.5 2242 0.29 0.29 15.44 0.00 0.00 - 0.4 - 0.0 0.0 5.5 829 2.23 0.31 1257 0.01 2018 0.07 1305 0.16 1321 12.7 92 58 42.4
1/31/24 56.0 0526 46.8 2358 1.94 7.57 15.15 0.00 0.00 - 3.0 - 0.0 0.0 0.0 823 1.94 1.03 1741 0.02 1742 0.17 1750 0.46 1835 12.7 91 58 44.8
1/30/24 69.7 1357 42.2 0556 0.00 5.63 13.21 0.00 0.00 - 6.2 - 0.0 0.0 5.8 823 - - - - - - - - - 12.8 87 21 38.5
1/29/24 73.0 1454 39.3 0645 0.00 5.63 13.21 1.34 0.00 - 6.0 - 0.0 0.0 6.2 817 - - - - - - - - - 12.8 93 27 43.8
1/28/24 68.6 1553 43.6 0657 0.00 5.63 13.21 0.00 0.00 - 5.7 - 0.0 0.0 0.8 811 - - - - - - - - - 12.8 92 54 48.0
1/27/24 62.9 1408 44.1 0530 0.00 5.63 13.21 0.00 0.00 - 3.4 - 0.0 0.0 2.7 810 - - - - - - - - - 12.7 90 51 45.1
1/26/24 56.5 1501 47.9 2347 0.00 5.63 13.21 0.00 0.00 - 1.4 - 0.0 0.0 0.0 808 - - - - - - - - - 12.8 86 61 44.2
1/25/24 60.5 1448 36.1 0750 0.00 5.63 13.21 0.00 0.00 - 2.0 - 0.0 0.0 8.5 808 - - - - - - - - - 12.7 92 38 39.1
1/24/24 53.7 1501 47.3 0001 0.34 5.63 13.21 0.00 0.00 - 0.7 - 0.0 0.0 0.0 799 0.58 0.62 0557 0.01 1252 0.11 0547 0.25 0619 12.8 90 76 45.7
1/23/24 59.4 1520 37.4 0615 0.24 5.29 12.87 0.00 0.00 - 2.1 - 0.0 0.0 7.9 799 0.24 0.36 2325 0.01 2341 0.05 2337 0.14 2342 12.8 94 50 42.7
1/22/24 61.6 1427 44.9 2314 0.18 5.05 12.63 0.00 0.00 - 2.6 - 0.0 0.0 0.2 791 2.55 0.75 0035 0.01 0529 0.07 0038 0.16 0123 12.7 92 58 47.1
1/21/24 55.2 1438 48.5 0106 1.20 4.87 12.45 0.00 0.00 - 1.1 - 0.0 0.0 0.0 791 2.37 0.56 2012 0.01 2346 0.10 1652 0.26 2207 12.8 89 78 46.6
1/20/24 55.4 1027 48.0 2044 0.45 3.67 11.25 0.00 0.00 - 1.2 - 0.0 0.0 0.0 791 1.17 0.34 0010 0.01 1622 0.06 0414 0.13 0028 12.7 90 67 45.1
1/19/24 53.1 1236 48.2 0019 0.72 3.22 10.80 0.00 0.00 - 0.8 - 0.0 0.0 0.0 791 0.72 0.43 1501 0.01 2356 0.06 2102 0.13 1747 12.8 89 51 41.7
1/18/24 59.4 1433 35.4 0200 0.00 2.50 10.08 0.00 0.00 - 1.5 - 0.0 0.0 9.7 791 - - - - - - - - - 12.8 94 46 40.1
1/17/24 55.5 1437 36.6 2351 0.01 2.50 10.08 0.00 0.00 - 0.8 - 0.0 0.0 11.3 781 0.54 0.01 0427 0.01 0428 0.01 0442 0.01 0527 12.7 93 64 41.4
1/16/24 52.5 1148 33.0 0137 0.53 2.49 10.07 0.00 0.00 - 0.1 - 0.0 0.0 9.4 770 0.53 0.36 1524 0.01 2014 0.06 1533 0.17 1611 12.8 92 67 41.2
1/15/24 57.6 1526 34.9 2312 0.00 1.96 9.54 0.00 0.00 - 0.7 - 0.0 0.0 17.7 761 - - - - - - - - - 12.8 92 56 38.8
1/14/24 59.0 1408 38.5 2314 0.00 1.96 9.54 0.00 0.00 - 1.6 - 0.0 0.0 9.1 743 - - - - - - - - - 12.7 91 50 40.8
1/13/24 54.3 1341 43.5 0510 1.08 1.96 9.54 0.00 0.00 - 1.4 - 0.0 0.0 8.8 734 1.08 0.45 1706 0.01 1914 0.09 1712 0.25 1731 12.8 91 76 45.1
1/12/24 49.8 1355 33.2 0036 0.00 0.88 8.46 0.00 0.00 - 0.0 - 0.0 0.0 15.2 725 - - - - - - - - - 12.7 88 56 34.4
1/11/24 49.7 1438 26.3 0624 0.00 0.88 8.46 0.00 0.00 - 0.0 - 5.2 3.2 19.1 710 - - - - - - - - - 12.6 88 36 28.0
1/10/24 51.4 1322 36.5 2347 0.06 0.88 8.46 0.00 0.00 - 0.1 - 0.0 0.0 11.9 691 - 0.04 1458 0.01 1908 0.02 1459 0.03 1544 12.8 87 62 37.4
1/9/24 52.7 1405 35.1 2337 0.10 0.82 8.40 0.00 0.00 - 0.3 - 0.0 0.0 8.5 679 0.10 0.15 0516 0.01 0812 0.04 0528 0.07 0547 12.8 91 50 38.3
1/8/24 52.1 1505 28.4 0257 0.00 0.72 8.30 0.00 0.00 - 0.1 - 7.2 0.0 12.8 670 - - - - - - - - - 12.7 89 51 33.8
1/7/24 49.8 1438 25.3 0632 0.00 0.72 8.30 0.00 0.00 - 0.0 - 9.7 5.7 18.8 658 - - - - - - - - - 12.7 90 40 27.5
1/6/24 47.9 1449 31.3 0433 0.20 0.72 8.30 0.00 0.00 - 0.0 - 0.8 0.0 18.6 639 0.20 0.25 1054 0.01 1157 0.05 1117 0.15 1142 12.7 91 41 32.2
1/5/24 58.5 1532 33.9 2356 0.00 0.52 8.10 0.00 0.00 - 1.3 - 0.0 0.0 15.6 620 - - - - - - - - - 12.8 92 44 37.7
1/4/24 59.3 1537 33.5 0048 0.00 0.52 8.10 0.00 0.00 - 1.5 - 0.0 0.0 10.5 605 - - - - - - - - - 12.8 91 48 37.7
1/3/24 52.7 1404 34.1 2359 0.08 0.52 8.10 0.00 0.00 - 0.3 - 0.0 0.0 15.6 594 0.52 0.07 0530 0.01 0531 0.02 0537 0.05 0532 12.7 92 55 37.4
1/2/24 51.6 1157 33.4 0111 0.44 0.44 8.02 0.00 0.00 - 0.1 - 0.0 0.0 13.2 578 0.44 0.49 1532 0.01 2002 0.09 1541 0.15 1618 12.8 92 70 39.4
1/1/24 57.9 1601 33.9 2348 0.00 0.00 7.58 0.00 0.00 - 0.6 - 0.0 0.0 18.2 565 - - - - - - - - - 12.8 92 47 39.0
12/31/23 53.8 1459 38.6 2358 0.07 5.36 7.58 0.00 0.00 - 0.6 - 0.0 0.0 11.5 547 - 0.12 1747 0.01 1758 0.03 1751 0.04 1836 12.9 92 66 41.8
12/30/23 56.8 1511 39.9 2223 0.20 5.29 7.51 0.00 0.00 - 1.2 - 0.0 0.0 4.1 536 0.88 0.26 0212 0.01 0821 0.05 0219 0.09 0234 12.7 92 60 44.0
12/29/23 58.6 0504 48.3 2043 0.68 5.09 7.31 0.00 0.00 - 3.5 - 0.0 0.0 0.0 532 0.68 0.55 1426 0.01 2302 0.08 1434 0.21 1727 12.8 90 68 48.1
12/28/23 55.6 1853 50.0 0109 0.00 4.41 6.63 0.00 0.00 - 2.8 - 0.0 0.0 0.0 532 - - - - - - - - - 12.8 91 80 48.6
12/27/23 52.4 0900 44.4 0017 0.33 4.41 6.63 0.00 0.00 - 0.9